Seeley, CA

12:32 AM PDT on September 17, 2014 (GMT -0700)
El Centro Naval Air Facility | Change Station
CLOSE
Current Station
Airport
Location: El Centro,
Elevation: -43 ft
Nearby Weather Stations

Elev -43 ft 32.83 °N, 115.66 °W | Updated 36 minutes ago

Clear
Clear
88 °F
Feels Like 89 °F
N
6
Wind Variable Wind from South

Today
High -- | Low -- °F
--% Chance of Precip.
Yesterday
High -- | Low -- °F
Precip. -- in
6:27 AM 6:46 PM
Last Quarter, 38% visible
Pressure 29.78 in
Visibility 10.0 miles
Clouds Clear
Heat Index 89 °F
Dew Point 63 °F
Humidity 43%
Rainfall 0.00 in
Snow Depth Not available.
UV 0 out of 12
Pollen 8.60 out of 12
Ozone Good
PM2.5 Good
Flu Activity Not available.
METAR KNJK 170656Z AUTO 18005KT 10SM CLR 31/17 A2973 RMK AO2 SLP083 T03110172

More Conditions Fewer Conditions

Pressure 29.78 in
Visibility 10.0 miles
Clouds Clear
Heat Index 89 °F
Dew Point 63 °F
Humidity 43%
Rainfall 0.00 in
Snow Depth Not available.
UV 0 out of 12
Pollen 8.60 out of 12
Ozone Good
PM2.5 Good
Flu Activity Not available.
METAR KNJK 170656Z AUTO 18005KT 10SM CLR 31/17 A2973 RMK AO2 SLP083 T03110172

More Conditions Fewer Conditions

10-Day Weather Forecast

Almanac

Astronomy

Sep. 17, 2014 Rise Set
Actual Time 6:27 AM PDT 6:46 PM PDT
Civil Twilight 6:03 AM PDT 7:10 PM PDT
Nautical Twilight 5:34 AM PDT 7:39 PM PDT
Astronomical Twilight 5:04 AM PDT 8:08 PM PDT
Moon 12:44 AM PDT 2:46 PM PDT
Length of Visible Light 13h 07m
Length of Day
12h 18m
Tomorrow will be 2m 0s shorter.
Last Quarter, 38% of the Moon is Illuminated
Today
Last Quarter
Sep 24
New
Oct 1
First Quarter
Oct 8
Full
Oct 15
Last Quarter

Today's Extremes

State Highs State Lows

Community

WunderPhotos

Upload Photos

1,753,976 photos uploaded!

Nearby

Air Quality

  Air Quality AQ Index Pollutant
Yesterday Moderate
PM2.5
Yesterday Good
OZONE
Current Good
PM2.5
Current Good
OZONE
Tuesday Good
OZONE
Wednesday Good
OZONE
Thursday Good
OZONE
Friday Good
OZONE
Saturday Good
OZONE
Sunday Good
OZONE

Snow Depth

Station Depth Elevation
CSS Lab 2 in 6900 ft
Leavitt Meadows 1 in 7200 ft
Hagan's Meadow 0 in 8000 ft
Tahoe City Cross 0 in 6750 ft
Summit Meadow 1 in 9122 ft

Earthquake Activity

City Distance Mag. Time & Date
La Quinta, California 65 miles 2.7 8:59 PM PDT
2014-09-15
San Jacinto, California 100 miles 3.0 3:16 PM PDT
2014-09-14
Minimum magnitude displayed is 2.5.

Coastal Water Temperatures

Place Temperature
No Stations Reporting

Nearby Weather Stations